Time;durP1;ratioP1;P1;durP2;ratioP2;P2;SDS_P1;SDS_P2;PMS_P1;PMS_P2;Temp;Humidity;BMP_temperature;BMP_pressure;BME280_temperature;BME280_humidity;BME280_pressure;Samples;Min_cycle;Max_cycle;Signal;HPM_P1;HPM_P2
2023/08/16 00:02:09;;;;;;;6.50;2.60;;;;;;;;;;5018723;28;20043;-68
2023/08/16 00:04:35;;;;;;;6.22;3.00;;;;;;;;;;5021594;28;20489;-69
2023/08/16 00:07:01;;;;;;;5.50;2.75;;;;;;;;;;5012836;28;20052;-69
2023/08/16 00:09:27;;;;;;;5.88;2.80;;;;;;;;;;4993099;28;20420;-69
2023/08/16 00:11:53;;;;;;;7.97;2.78;;;;;;;;;;5024706;28;20054;-69
2023/08/16 00:14:19;;;;;;;8.07;2.83;;;;;;;;;;5026365;28;20479;-69
2023/08/16 00:16:45;;;;;;;6.95;3.22;;;;;;;;;;5024031;28;20048;-69
2023/08/16 00:19:11;;;;;;;6.65;2.80;;;;;;;;;;5020115;28;20046;-68
2023/08/16 00:21:38;;;;;;;10.15;2.85;;;;;;;;;;5015722;28;20045;-69
2023/08/16 00:24:05;;;;;;;6.85;3.10;;;;;;;;;;5022778;28;20045;-69
2023/08/16 00:26:31;;;;;;;5.88;2.88;;;;;;;;;;5017110;28;20050;-68
2023/08/16 00:28:57;;;;;;;7.22;3.00;;;;;;;;;;4996764;28;20561;-68
2023/08/16 00:31:23;;;;;;;7.25;3.03;;;;;;;;;;5010556;28;20034;-68
2023/08/16 00:33:50;;;;;;;6.53;2.78;;;;;;;;;;5020931;28;20049;-69
2023/08/16 00:36:16;;;;;;;7.63;2.85;;;;;;;;;;5028445;28;20094;-69
2023/08/16 00:38:45;;;;;;;6.18;2.72;;;;;;;;;;4993590;28;20056;-69
2023/08/16 00:41:11;;;;;;;7.32;3.03;;;;;;;;;;5013939;28;20124;-68
2023/08/16 00:43:38;;;;;;;3.95;2.80;;;;;;;;;;5028394;28;20045;-69
2023/08/16 00:46:05;;;;;;;4.70;2.97;;;;;;;;;;5026551;28;20041;-69
2023/08/16 00:48:32;;;;;;;4.22;2.55;;;;;;;;;;5018170;28;20061;-68
2023/08/16 00:50:58;;;;;;;5.28;2.90;;;;;;;;;;5008294;28;20057;-69
2023/08/16 00:53:25;;;;;;;5.68;3.35;;;;;;;;;;5005393;28;20450;-68
2023/08/16 00:55:51;;;;;;;4.45;2.80;;;;;;;;;;5025973;28;20098;-68
2023/08/16 00:58:17;;;;;;;3.20;2.90;;;;;;;;;;5020833;28;20039;-68
2023/08/16 01:00:43;;;;;;;3.75;3.08;;;;;;;;;;5028884;28;20037;-68
2023/08/16 01:03:09;;;;;;;4.38;2.92;;;;;;;;;;5026613;28;20049;-68
2023/08/16 01:05:35;;;;;;;5.43;3.20;;;;;;;;;;5024736;28;20057;-69
2023/08/16 01:08:02;;;;;;;4.30;3.03;;;;;;;;;;5028940;28;20045;-68
2023/08/16 01:10:43;;;;;;;5.40;2.97;;;;;;;;;;5028921;28;20050;-68
2023/08/16 01:13:12;;;;;;;6.07;3.10;;;;;;;;;;5004426;28;20049;-68
2023/08/16 01:15:40;;;;;;;4.90;3.10;;;;;;;;;;4991159;28;20058;-69
2023/08/16 01:18:07;;;;;;;4.15;2.90;;;;;;;;;;5012878;28;20095;-68
2023/08/16 01:20:34;;;;;;;5.63;3.60;;;;;;;;;;5020076;28;20052;-69
2023/08/16 01:23:07;;;;;;;6.10;2.90;;;;;;;;;;5006719;28;20121;-69
2023/08/16 01:25:53;;;;;;;5.22;2.78;;;;;;;;;;4998376;28;20080;-69
2023/08/16 01:28:20;;;;;;;3.47;2.80;;;;;;;;;;5010371;28;20050;-69
2023/08/16 01:30:46;;;;;;;3.50;3.10;;;;;;;;;;5027901;28;20042;-69
2023/08/16 01:33:13;;;;;;;4.47;3.60;;;;;;;;;;5026758;28;20106;-68
2023/08/16 01:35:40;;;;;;;4.38;3.17;;;;;;;;;;5014854;28;20492;-68
2023/08/16 01:38:07;;;;;;;4.05;2.92;;;;;;;;;;5012010;28;20044;-68
2023/08/16 01:40:41;;;;;;;6.85;3.65;;;;;;;;;;5019364;28;20045;-68
2023/08/16 01:43:09;;;;;;;7.68;5.53;;;;;;;;;;5028005;28;20041;-68
2023/08/16 01:45:35;;;;;;;6.97;5.63;;;;;;;;;;5010108;28;20096;-69
2023/08/16 01:48:03;;;;;;;7.97;6.53;;;;;;;;;;5027501;28;20037;-69
2023/08/16 01:50:29;;;;;;;9.63;6.65;;;;;;;;;;5022509;28;20059;-68
2023/08/16 01:52:55;;;;;;;8.40;6.47;;;;;;;;;;5025560;28;20060;-68
2023/08/16 01:55:21;;;;;;;7.57;6.25;;;;;;;;;;4999695;28;20111;-68
2023/08/16 01:57:47;;;;;;;6.57;5.95;;;;;;;;;;5025186;28;20077;-68
2023/08/16 02:00:15;;;;;;;8.70;6.93;;;;;;;;;;5016377;28;20041;-68
2023/08/16 02:02:41;;;;;;;7.18;6.47;;;;;;;;;;5027388;28;20048;-68
2023/08/16 02:05:08;;;;;;;9.77;6.65;;;;;;;;;;5008062;28;20049;-68
2023/08/16 02:07:34;;;;;;;8.40;6.63;;;;;;;;;;4995237;28;20059;-68
2023/08/16 02:10:00;;;;;;;8.18;6.57;;;;;;;;;;5016819;28;20049;-68
2023/08/16 02:12:26;;;;;;;7.93;6.75;;;;;;;;;;5022620;28;20396;-68
2023/08/16 02:14:52;;;;;;;8.00;6.78;;;;;;;;;;5021893;28;20045;-68
2023/08/16 02:17:18;;;;;;;6.93;6.32;;;;;;;;;;5013804;28;20050;-68
2023/08/16 02:19:44;;;;;;;7.85;6.13;;;;;;;;;;5006184;28;20049;-68
2023/08/16 02:22:10;;;;;;;9.55;7.10;;;;;;;;;;5000633;28;20037;-68
2023/08/16 02:24:36;;;;;;;7.28;6.53;;;;;;;;;;5027235;28;20504;-68
2023/08/16 02:27:02;;;;;;;7.70;6.93;;;;;;;;;;5028191;28;20464;-67
2023/08/16 02:29:28;;;;;;;8.45;7.00;;;;;;;;;;5030354;28;20045;-68
2023/08/16 02:31:54;;;;;;;7.93;6.75;;;;;;;;;;5014480;28;20404;-68
2023/08/16 02:34:20;;;;;;;8.35;6.82;;;;;;;;;;5024412;27;20056;-68
2023/08/16 02:36:46;;;;;;;10.15;8.05;;;;;;;;;;5111084;27;20037;-68
2023/08/16 02:39:12;;;;;;;10.93;6.88;;;;;;;;;;5002363;28;21185;-68
2023/08/16 02:41:38;;;;;;;9.93;7.50;;;;;;;;;;5031737;28;20073;-68
2023/08/16 02:44:04;;;;;;;9.57;6.95;;;;;;;;;;5013806;28;20050;-68
2023/08/16 02:46:33;;;;;;;11.05;7.53;;;;;;;;;;5001374;28;20111;-68
2023/08/16 02:48:59;;;;;;;8.85;7.95;;;;;;;;;;5029070;28;20042;-68
2023/08/16 02:51:25;;;;;;;7.65;6.90;;;;;;;;;;5013811;28;20077;-67
2023/08/16 02:53:51;;;;;;;9.10;7.20;;;;;;;;;;5031252;28;20056;-68
2023/08/16 02:56:17;;;;;;;9.60;7.40;;;;;;;;;;5011303;28;20053;-67
2023/08/16 02:58:44;;;;;;;8.57;7.28;;;;;;;;;;5018643;28;20072;-68
2023/08/16 03:01:10;;;;;;;8.73;7.82;;;;;;;;;;5023040;28;20046;-68
2023/08/16 03:03:36;;;;;;;10.60;7.55;;;;;;;;;;5014902;28;20454;-68
2023/08/16 03:06:03;;;;;;;9.70;7.75;;;;;;;;;;5015326;28;20598;-68
2023/08/16 03:08:29;;;;;;;9.40;7.25;;;;;;;;;;5010561;28;20098;-68
2023/08/16 03:10:55;;;;;;;7.95;7.15;;;;;;;;;;5030159;28;20050;-68
2023/08/16 03:13:21;;;;;;;8.98;7.53;;;;;;;;;;5024851;28;20488;-68
2023/08/16 03:15:47;;;;;;;9.60;8.15;;;;;;;;;;5021213;28;20042;-68
2023/08/16 03:18:13;;;;;;;9.80;7.55;;;;;;;;;;5004775;28;20049;-68
2023/08/16 03:20:39;;;;;;;10.35;8.30;;;;;;;;;;5002783;28;20058;-68
2023/08/16 03:23:05;;;;;;;11.95;8.02;;;;;;;;;;5021063;28;20030;-68
2023/08/16 03:25:31;;;;;;;11.68;7.55;;;;;;;;;;5002577;28;20422;-68
2023/08/16 03:27:57;;;;;;;10.43;7.20;;;;;;;;;;5027926;28;20053;-68
2023/08/16 03:30:24;;;;;;;8.50;7.55;;;;;;;;;;4995131;28;20046;-68
2023/08/16 03:32:50;;;;;;;8.27;7.28;;;;;;;;;;5023599;28;20045;-68
2023/08/16 03:35:16;;;;;;;8.98;7.10;;;;;;;;;;5010926;28;20507;-68
2023/08/16 03:37:42;;;;;;;8.88;7.70;;;;;;;;;;5010952;28;20042;-68
2023/08/16 03:40:09;;;;;;;7.93;7.10;;;;;;;;;;5005538;28;20140;-67
2023/08/16 03:42:35;;;;;;;7.95;6.72;;;;;;;;;;5012547;28;20370;-68
2023/08/16 03:45:01;;;;;;;8.57;7.60;;;;;;;;;;5025202;28;20050;-68
2023/08/16 03:47:29;;;;;;;10.27;7.57;;;;;;;;;;5010950;28;20057;-68
2023/08/16 03:49:56;;;;;;;9.27;7.95;;;;;;;;;;5018664;28;20053;-68
2023/08/16 03:52:22;;;;;;;9.20;7.40;;;;;;;;;;5011396;28;20110;-68
2023/08/16 03:54:48;;;;;;;8.88;7.95;;;;;;;;;;5009840;28;20050;-68
2023/08/16 03:57:14;;;;;;;8.88;7.47;;;;;;;;;;5017646;28;20068;-68
2023/08/16 03:59:40;;;;;;;10.45;7.43;;;;;;;;;;5017979;28;20053;-68
2023/08/16 04:02:06;;;;;;;8.25;7.15;;;;;;;;;;5017510;28;20054;-68
2023/08/16 04:04:32;;;;;;;8.85;7.57;;;;;;;;;;5035383;27;20521;-67
2023/08/16 04:06:59;;;;;;;9.35;6.95;;;;;;;;;;5018534;28;20086;-67
2023/08/16 04:09:25;;;;;;;9.07;6.88;;;;;;;;;;5030258;28;20049;-68
2023/08/16 04:11:52;;;;;;;9.20;7.60;;;;;;;;;;5018729;28;20045;-67
2023/08/16 04:14:18;;;;;;;9.38;6.82;;;;;;;;;;5037737;27;20057;-67
2023/08/16 04:16:44;;;;;;;9.98;7.43;;;;;;;;;;5023730;27;20042;-67
2023/08/16 04:19:13;;;;;;;10.10;6.60;;;;;;;;;;5040969;27;20404;-67
2023/08/16 04:21:39;;;;;;;7.78;6.70;;;;;;;;;;5055081;27;20074;-67
2023/08/16 04:24:05;;;;;;;11.88;7.35;;;;;;;;;;5062188;27;20045;-67
2023/08/16 04:26:31;;;;;;;8.48;6.72;;;;;;;;;;5011438;28;20132;-68
2023/08/16 04:28:57;;;;;;;9.00;6.57;;;;;;;;;;5014392;28;20102;-68
2023/08/16 04:31:23;;;;;;;8.65;6.30;;;;;;;;;;5018567;28;20056;-67
2023/08/16 04:33:49;;;;;;;8.52;6.50;;;;;;;;;;5009556;28;20042;-67
2023/08/16 04:36:16;;;;;;;7.10;6.05;;;;;;;;;;5012105;28;20045;-67
2023/08/16 04:38:42;;;;;;;7.15;6.28;;;;;;;;;;5029910;28;20485;-68
2023/08/16 04:41:08;;;;;;;7.00;5.70;;;;;;;;;;5021074;28;20084;-67
2023/08/16 04:43:34;;;;;;;6.70;5.25;;;;;;;;;;5011557;28;20081;-67
2023/08/16 04:46:00;;;;;;;7.07;5.88;;;;;;;;;;5029620;28;20044;-67
2023/08/16 04:48:26;;;;;;;9.98;5.50;;;;;;;;;;5029881;28;20502;-67
2023/08/16 04:50:52;;;;;;;7.72;5.80;;;;;;;;;;5027403;28;20049;-67
2023/08/16 04:53:18;;;;;;;5.82;5.30;;;;;;;;;;5030148;28;20137;-67
2023/08/16 04:55:44;;;;;;;6.18;5.55;;;;;;;;;;5019356;28;20424;-67
2023/08/16 04:58:10;;;;;;;6.15;5.30;;;;;;;;;;5029389;28;20135;-67
2023/08/16 05:00:36;;;;;;;6.20;5.68;;;;;;;;;;5029373;28;20141;-68
2023/08/16 05:03:02;;;;;;;6.28;5.65;;;;;;;;;;5011823;28;20186;-67
2023/08/16 05:05:28;;;;;;;7.53;6.10;;;;;;;;;;5029261;28;20058;-67
2023/08/16 05:07:54;;;;;;;7.70;5.60;;;;;;;;;;5021177;28;20061;-68
2023/08/16 05:10:20;;;;;;;7.10;6.30;;;;;;;;;;5022058;28;20053;-67
2023/08/16 05:12:46;;;;;;;9.55;6.38;;;;;;;;;;5028960;28;20045;-67
2023/08/16 05:15:12;;;;;;;7.28;5.85;;;;;;;;;;5009526;28;20053;-67
2023/08/16 05:17:38;;;;;;;7.85;6.15;;;;;;;;;;5009086;28;20053;-67
2023/08/16 05:20:05;;;;;;;10.40;6.43;;;;;;;;;;5009830;28;20367;-67
2023/08/16 05:22:31;;;;;;;7.90;6.32;;;;;;;;;;5009923;28;20091;-67
2023/08/16 05:24:57;;;;;;;8.05;5.95;;;;;;;;;;5021950;28;20052;-67
2023/08/16 05:27:23;;;;;;;9.20;6.38;;;;;;;;;;5029474;28;20034;-67
2023/08/16 05:29:49;;;;;;;7.55;6.35;;;;;;;;;;5011380;28;20053;-67
2023/08/16 05:32:15;;;;;;;8.68;6.10;;;;;;;;;;5026126;28;20094;-67
2023/08/16 05:34:41;;;;;;;10.88;7.00;;;;;;;;;;5011296;28;20049;-67
2023/08/16 05:37:09;;;;;;;12.38;9.48;;;;;;;;;;5027972;28;20131;-67
2023/08/16 05:39:35;;;;;;;11.85;9.02;;;;;;;;;;5028660;28;20090;-68
2023/08/16 05:42:02;;;;;;;12.75;7.90;;;;;;;;;;5027341;28;20442;-67
2023/08/16 05:44:28;;;;;;;8.52;6.85;;;;;;;;;;5011608;28;20050;-68
2023/08/16 05:46:54;;;;;;;10.85;7.47;;;;;;;;;;5028010;28;20049;-67
2023/08/16 05:49:20;;;;;;;11.27;7.20;;;;;;;;;;5029101;28;20049;-67
2023/08/16 05:51:46;;;;;;;11.48;7.65;;;;;;;;;;5012405;28;20048;-67
2023/08/16 05:54:13;;;;;;;11.07;7.53;;;;;;;;;;5008852;28;20100;-67
2023/08/16 05:56:39;;;;;;;9.30;7.50;;;;;;;;;;5012855;28;20072;-67
2023/08/16 05:59:05;;;;;;;9.50;6.93;;;;;;;;;;5011883;28;20053;-67
2023/08/16 06:01:31;;;;;;;12.82;7.90;;;;;;;;;;5010352;28;20056;-67
2023/08/16 06:03:57;;;;;;;9.43;6.50;;;;;;;;;;5024826;28;20052;-67
2023/08/16 06:06:23;;;;;;;7.88;7.03;;;;;;;;;;4991761;28;20073;-67
2023/08/16 06:08:49;;;;;;;9.80;6.40;;;;;;;;;;5008023;28;20037;-67
2023/08/16 06:11:15;;;;;;;10.75;6.20;;;;;;;;;;5009381;28;20466;-67
2023/08/16 06:13:41;;;;;;;11.43;6.43;;;;;;;;;;5010752;28;20057;-67
2023/08/16 06:16:07;;;;;;;6.40;5.68;;;;;;;;;;5017301;28;20038;-67
2023/08/16 06:18:33;;;;;;;10.55;7.20;;;;;;;;;;5009164;28;20501;-68
2023/08/16 06:20:59;;;;;;;9.68;6.15;;;;;;;;;;5008597;28;20109;-67
2023/08/16 06:23:25;;;;;;;11.55;7.47;;;;;;;;;;5009479;28;20081;-67
2023/08/16 06:25:51;;;;;;;11.02;7.43;;;;;;;;;;4990956;28;20085;-67
2023/08/16 06:28:17;;;;;;;8.27;6.70;;;;;;;;;;5008206;28;20121;-67
2023/08/16 06:30:43;;;;;;;9.43;6.43;;;;;;;;;;5024575;28;20591;-67
2023/08/16 06:33:09;;;;;;;10.15;7.25;;;;;;;;;;5008699;28;20046;-67
2023/08/16 06:35:35;;;;;;;12.02;7.88;;;;;;;;;;4999345;28;20105;-67
2023/08/16 06:38:02;;;;;;;12.70;7.82;;;;;;;;;;5028730;28;20050;-67
2023/08/16 06:40:28;;;;;;;8.27;7.47;;;;;;;;;;5009622;28;20064;-67
2023/08/16 06:42:54;;;;;;;10.77;7.82;;;;;;;;;;5027402;28;20041;-67
2023/08/16 06:45:20;;;;;;;12.43;8.35;;;;;;;;;;5027712;28;20053;-67
2023/08/16 06:47:47;;;;;;;10.00;8.25;;;;;;;;;;5025754;28;20484;-67
2023/08/16 06:50:14;;;;;;;12.48;8.40;;;;;;;;;;5027563;28;20071;-67
2023/08/16 06:52:42;;;;;;;12.60;8.27;;;;;;;;;;5028379;28;20060;-66
2023/08/16 06:55:08;;;;;;;9.30;7.90;;;;;;;;;;5027971;28;20480;-67
2023/08/16 06:57:34;;;;;;;9.30;7.70;;;;;;;;;;5027385;28;20408;-67
2023/08/16 07:00:00;;;;;;;10.15;8.20;;;;;;;;;;5028303;28;20093;-67
2023/08/16 07:02:26;;;;;;;10.55;7.78;;;;;;;;;;5026508;28;20519;-67
2023/08/16 07:04:52;;;;;;;11.40;8.45;;;;;;;;;;5013108;28;20400;-67
2023/08/16 07:07:18;;;;;;;10.85;8.27;;;;;;;;;;5008920;28;20046;-67
2023/08/16 07:09:44;;;;;;;12.52;7.75;;;;;;;;;;5011683;28;20073;-67
2023/08/16 07:12:10;;;;;;;9.02;7.93;;;;;;;;;;5027067;28;20052;-67
2023/08/16 07:14:36;;;;;;;11.35;6.78;;;;;;;;;;5012124;28;20050;-67
2023/08/16 07:17:05;;;;;;;10.45;6.07;;;;;;;;;;5013312;28;20489;-67
2023/08/16 07:19:31;;;;;;;11.32;6.95;;;;;;;;;;5031089;28;20441;-67
2023/08/16 07:21:57;;;;;;;12.73;7.72;;;;;;;;;;5029341;28;20052;-68
2023/08/16 07:24:23;;;;;;;9.40;6.70;;;;;;;;;;5010942;28;20484;-67
2023/08/16 07:26:49;;;;;;;9.02;6.93;;;;;;;;;;5012630;28;20061;-67
2023/08/16 07:29:15;;;;;;;11.00;6.90;;;;;;;;;;5031273;28;20045;-67
2023/08/16 07:31:41;;;;;;;10.05;8.02;;;;;;;;;;5030371;28;20568;-67
2023/08/16 07:34:07;;;;;;;10.20;6.55;;;;;;;;;;5030954;28;20404;-67
2023/08/16 07:36:33;;;;;;;23.33;15.30;;;;;;;;;;5027771;28;20041;-68
2023/08/16 07:38:59;;;;;;;12.13;7.78;;;;;;;;;;5029689;28;20071;-67
2023/08/16 07:41:25;;;;;;;10.77;6.80;;;;;;;;;;5013665;28;20361;-67
2023/08/16 07:43:52;;;;;;;9.88;6.55;;;;;;;;;;5026687;28;20053;-67
2023/08/16 07:46:18;;;;;;;8.25;6.07;;;;;;;;;;5030647;28;20114;-67
2023/08/16 07:48:44;;;;;;;8.80;7.35;;;;;;;;;;5012528;28;20067;-68
2023/08/16 07:51:10;;;;;;;10.85;7.32;;;;;;;;;;5013334;28;20515;-67
2023/08/16 07:53:36;;;;;;;8.07;7.03;;;;;;;;;;5025191;28;20128;-68
2023/08/16 07:56:02;;;;;;;9.15;6.60;;;;;;;;;;5012978;28;20133;-68
2023/08/16 07:58:28;;;;;;;10.05;7.57;;;;;;;;;;5031161;28;20109;-67
2023/08/16 08:00:55;;;;;;;9.80;6.85;;;;;;;;;;4998556;28;20048;-67
2023/08/16 08:03:21;;;;;;;6.38;5.78;;;;;;;;;;5010751;28;20393;-67
2023/08/16 08:05:47;;;;;;;10.52;6.90;;;;;;;;;;5010789;28;20489;-67
2023/08/16 08:08:14;;;;;;;9.48;6.57;;;;;;;;;;4996112;28;20107;-67
2023/08/16 08:10:44;;;;;;;10.93;6.32;;;;;;;;;;5029706;28;20053;-67
2023/08/16 08:13:10;;;;;;;9.93;7.00;;;;;;;;;;5030431;28;20137;-67
2023/08/16 08:15:36;;;;;;;7.93;6.50;;;;;;;;;;5012226;28;20045;-68
2023/08/16 08:18:03;;;;;;;8.85;6.88;;;;;;;;;;5014860;28;20042;-67
2023/08/16 08:20:29;;;;;;;11.48;7.40;;;;;;;;;;5000787;28;20470;-68
2023/08/16 08:22:55;;;;;;;11.80;6.72;;;;;;;;;;5030112;28;20092;-67
2023/08/16 08:25:21;;;;;;;10.77;7.28;;;;;;;;;;5028338;28;20056;-68
2023/08/16 08:27:47;;;;;;;11.20;7.90;;;;;;;;;;5019894;28;20049;-68
2023/08/16 08:30:16;;;;;;;11.95;7.55;;;;;;;;;;5017528;28;20049;-67
2023/08/16 08:32:42;;;;;;;7.75;6.93;;;;;;;;;;4992526;28;20050;-68
2023/08/16 08:35:09;;;;;;;11.10;7.72;;;;;;;;;;5001888;28;20061;-68
2023/08/16 08:37:35;;;;;;;13.00;8.50;;;;;;;;;;5012706;28;20485;-68
2023/08/16 08:40:01;;;;;;;10.48;7.95;;;;;;;;;;5030012;28;20075;-68
2023/08/16 08:42:28;;;;;;;9.65;7.85;;;;;;;;;;5028414;28;20069;-68
2023/08/16 08:44:55;;;;;;;9.38;7.03;;;;;;;;;;5029089;28;20046;-68
2023/08/16 08:47:21;;;;;;;10.65;6.82;;;;;;;;;;5011436;28;20045;-68
2023/08/16 08:49:48;;;;;;;9.73;6.82;;;;;;;;;;5028863;28;20046;-68
2023/08/16 08:52:16;;;;;;;10.50;6.80;;;;;;;;;;5030144;28;20200;-67
2023/08/16 08:54:42;;;;;;;8.75;6.40;;;;;;;;;;5029093;28;20504;-68
2023/08/16 08:57:09;;;;;;;8.70;7.00;;;;;;;;;;5028743;28;20184;-68
2023/08/16 08:59:35;;;;;;;12.32;6.38;;;;;;;;;;5029706;28;20468;-68
2023/08/16 09:02:01;;;;;;;8.13;6.55;;;;;;;;;;5022295;28;20120;-68
2023/08/16 09:04:29;;;;;;;8.15;6.18;;;;;;;;;;5009599;28;20088;-68
2023/08/16 09:06:56;;;;;;;8.40;6.10;;;;;;;;;;5009620;28;20158;-67
2023/08/16 09:09:25;;;;;;;8.30;6.43;;;;;;;;;;5009808;28;20508;-68
2023/08/16 09:11:51;;;;;;;8.10;5.95;;;;;;;;;;5014527;28;20477;-67
2023/08/16 09:14:17;;;;;;;8.05;6.20;;;;;;;;;;5029993;28;20070;-68
2023/08/16 09:16:43;;;;;;;8.70;5.45;;;;;;;;;;5028856;28;20044;-68
2023/08/16 09:19:16;;;;;;;10.73;6.65;;;;;;;;;;5011474;28;20049;-68
2023/08/16 09:21:42;;;;;;;8.43;5.50;;;;;;;;;;5009704;28;20038;-68
2023/08/16 09:24:09;;;;;;;14.35;9.98;;;;;;;;;;4991657;28;20065;-68
2023/08/16 09:26:36;;;;;;;8.65;6.43;;;;;;;;;;5010956;28;20049;-68
2023/08/16 09:29:03;;;;;;;8.13;5.72;;;;;;;;;;5011805;28;20099;-68
2023/08/16 09:31:29;;;;;;;6.93;5.65;;;;;;;;;;5029219;28;20042;-68
2023/08/16 09:33:55;;;;;;;6.63;5.90;;;;;;;;;;5024497;28;20042;-68
2023/08/16 09:36:22;;;;;;;8.23;4.90;;;;;;;;;;5026787;28;20034;-68
2023/08/16 09:38:48;;;;;;;7.05;5.90;;;;;;;;;;5028728;28;20132;-68
2023/08/16 09:41:16;;;;;;;8.70;5.28;;;;;;;;;;5011963;28;20041;-68
2023/08/16 09:43:42;;;;;;;8.68;4.90;;;;;;;;;;5027680;28;20049;-68
2023/08/16 09:46:09;;;;;;;10.88;5.60;;;;;;;;;;5009172;28;20439;-68
2023/08/16 09:48:36;;;;;;;9.07;7.93;;;;;;;;;;5029188;28;20050;-68
2023/08/16 09:51:03;;;;;;;11.27;8.70;;;;;;;;;;5029418;28;20037;-68
2023/08/16 09:53:30;;;;;;;14.23;8.65;;;;;;;;;;5026216;28;20128;-68
2023/08/16 09:55:59;;;;;;;13.13;8.85;;;;;;;;;;5029608;28;20056;-68
2023/08/16 09:58:27;;;;;;;12.30;8.73;;;;;;;;;;5028942;28;20049;-68
2023/08/16 10:00:53;;;;;;;15.82;8.70;;;;;;;;;;5028390;28;20053;-68
2023/08/16 10:03:20;;;;;;;10.27;8.80;;;;;;;;;;5028090;28;20507;-68
2023/08/16 10:05:47;;;;;;;10.15;8.13;;;;;;;;;;5007293;28;20577;-68
2023/08/16 10:08:13;;;;;;;10.68;9.10;;;;;;;;;;5006795;28;20078;-68
2023/08/16 10:10:40;;;;;;;12.25;8.95;;;;;;;;;;5008414;28;20477;-68
2023/08/16 10:13:07;;;;;;;10.23;8.57;;;;;;;;;;4988096;28;20053;-68
2023/08/16 10:15:34;;;;;;;12.13;9.75;;;;;;;;;;4989233;28;20046;-68
2023/08/16 10:18:01;;;;;;;12.50;9.52;;;;;;;;;;4989441;28;20047;-68
2023/08/16 10:20:30;;;;;;;11.30;8.43;;;;;;;;;;4991601;28;20169;-68
2023/08/16 10:23:00;;;;;;;10.25;9.02;;;;;;;;;;5007999;28;20061;-68
2023/08/16 10:25:28;;;;;;;13.70;8.35;;;;;;;;;;5007423;28;20045;-68
2023/08/16 10:27:56;;;;;;;11.57;8.48;;;;;;;;;;5005175;28;20108;-67
2023/08/16 10:30:23;;;;;;;9.00;7.35;;;;;;;;;;4998460;28;20050;-68
2023/08/16 10:32:52;;;;;;;10.25;6.63;;;;;;;;;;4998305;28;20042;-67
2023/08/16 10:35:19;;;;;;;10.52;8.23;;;;;;;;;;5007967;28;20076;-68
2023/08/16 10:37:49;;;;;;;9.25;7.88;;;;;;;;;;4992826;28;20050;-68
2023/08/16 10:40:22;;;;;;;11.18;7.90;;;;;;;;;;5003451;28;20493;-68
2023/08/16 10:42:54;;;;;;;7.45;5.18;;;;;;;;;;4990106;28;20053;-68
2023/08/16 10:45:38;;;;;;;8.73;5.93;;;;;;;;;;4987389;28;20057;-68
2023/08/16 10:48:19;;;;;;;6.57;5.45;;;;;;;;;;4988893;28;20042;-68
2023/08/16 10:50:54;;;;;;;7.05;6.00;;;;;;;;;;4992160;28;20058;-68
2023/08/16 10:53:24;;;;;;;6.55;5.30;;;;;;;;;;5000007;28;20049;-67
2023/08/16 10:55:55;;;;;;;6.90;4.75;;;;;;;;;;5011609;28;20248;-68
2023/08/16 10:58:23;;;;;;;5.43;4.28;;;;;;;;;;5006268;28;20512;-68
2023/08/16 11:00:55;;;;;;;5.95;4.68;;;;;;;;;;5009735;28;20124;-68
2023/08/16 11:03:21;;;;;;;5.33;4.20;;;;;;;;;;5011565;28;20060;-68
2023/08/16 11:05:48;;;;;;;7.00;4.43;;;;;;;;;;5017928;28;20133;-68
2023/08/16 11:08:15;;;;;;;4.35;3.47;;;;;;;;;;5013979;28;20064;-68
2023/08/16 11:10:42;;;;;;;3.90;3.45;;;;;;;;;;5013182;28;20438;-68
2023/08/16 11:13:12;;;;;;;4.78;3.85;;;;;;;;;;5030826;28;20539;-67
2023/08/16 11:15:40;;;;;;;7.82;2.97;;;;;;;;;;5030055;28;20140;-68
2023/08/16 11:18:06;;;;;;;5.95;3.10;;;;;;;;;;5030801;28;20396;-68
2023/08/16 11:20:33;;;;;;;3.65;2.78;;;;;;;;;;5031434;28;20080;-68
2023/08/16 11:22:59;;;;;;;4.05;3.05;;;;;;;;;;5032007;28;20061;-68
2023/08/16 11:25:32;;;;;;;11.00;3.03;;;;;;;;;;5015650;28;20071;-68
2023/08/16 11:28:04;;;;;;;3.05;2.60;;;;;;;;;;5010493;28;20060;-68
2023/08/16 11:30:34;;;;;;;3.90;2.58;;;;;;;;;;5030118;28;20045;-69
2023/08/16 11:33:00;;;;;;;6.47;2.72;;;;;;;;;;5026800;28;20450;-68
2023/08/16 11:35:27;;;;;;;4.50;2.80;;;;;;;;;;5011138;28;20050;-68
2023/08/16 11:37:53;;;;;;;4.80;3.30;;;;;;;;;;4992888;28;20865;-68
2023/08/16 11:40:22;;;;;;;4.57;3.00;;;;;;;;;;5024114;28;20049;-68
2023/08/16 11:42:51;;;;;;;4.95;2.90;;;;;;;;;;5030784;28;20056;-68
2023/08/16 11:45:21;;;;;;;4.15;3.28;;;;;;;;;;5010605;28;20081;-68
2023/08/16 11:47:51;;;;;;;5.88;3.40;;;;;;;;;;5030720;28;20057;-68
2023/08/16 11:50:17;;;;;;;4.10;3.40;;;;;;;;;;5031126;28;20137;-68
2023/08/16 11:52:44;;;;;;;5.22;3.00;;;;;;;;;;5029716;28;20041;-68
2023/08/16 11:55:14;;;;;;;4.35;3.10;;;;;;;;;;5002206;28;20107;-68
2023/08/16 11:57:43;;;;;;;5.10;2.83;;;;;;;;;;5010611;28;20050;-68
2023/08/16 12:00:10;;;;;;;5.40;2.70;;;;;;;;;;4992705;28;20046;-68
2023/08/16 12:02:37;;;;;;;5.85;3.60;;;;;;;;;;5004864;28;20448;-67
2023/08/16 12:05:10;;;;;;;5.18;3.00;;;;;;;;;;5029938;28;20049;-69
2023/08/16 12:07:45;;;;;;;4.32;2.95;;;;;;;;;;5010093;28;20148;-68
2023/08/16 12:10:27;;;;;;;3.95;2.90;;;;;;;;;;5012507;28;20550;-68
2023/08/16 12:12:54;;;;;;;6.60;2.78;;;;;;;;;;5029841;28;20377;-68
2023/08/16 12:15:24;;;;;;;3.20;2.90;;;;;;;;;;5012926;28;20106;-68
2023/08/16 12:17:52;;;;;;;4.25;2.60;;;;;;;;;;5026292;28;20046;-68
2023/08/16 12:20:18;;;;;;;4.88;2.88;;;;;;;;;;5009698;28;20181;-68
2023/08/16 12:22:47;;;;;;;3.95;2.90;;;;;;;;;;5030012;28;20488;-68
2023/08/16 12:25:13;;;;;;;6.38;2.75;;;;;;;;;;5029163;28;20102;-68
2023/08/16 12:27:39;;;;;;;4.68;2.47;;;;;;;;;;5012048;28;20101;-69
2023/08/16 12:30:06;;;;;;;6.00;2.72;;;;;;;;;;5030622;28;20045;-68
2023/08/16 12:32:32;;;;;;;4.85;2.50;;;;;;;;;;5029791;28;20389;-68
2023/08/16 12:34:58;;;;;;;4.25;2.53;;;;;;;;;;5029463;28;20057;-68
2023/08/16 12:37:24;;;;;;;4.63;2.60;;;;;;;;;;5029642;28;20069;-68
2023/08/16 12:39:50;;;;;;;3.10;2.30;;;;;;;;;;5015013;28;20562;-68
2023/08/16 12:42:16;;;;;;;4.70;2.22;;;;;;;;;;5011910;28;20076;-68
2023/08/16 12:44:42;;;;;;;3.40;2.05;;;;;;;;;;5029723;28;20122;-68
2023/08/16 12:47:08;;;;;;;4.40;2.25;;;;;;;;;;5025422;28;20129;-68
2023/08/16 12:49:34;;;;;;;5.68;2.35;;;;;;;;;;5018109;28;20085;-69
2023/08/16 12:52:00;;;;;;;4.10;2.45;;;;;;;;;;5029916;28;20182;-68
2023/08/16 12:54:26;;;;;;;3.42;2.40;;;;;;;;;;5011560;28;20208;-68
2023/08/16 12:56:52;;;;;;;5.97;2.40;;;;;;;;;;5008182;28;20046;-68
2023/08/16 12:59:18;;;;;;;3.35;2.30;;;;;;;;;;5029091;28;20453;-68
2023/08/16 13:01:46;;;;;;;3.78;2.10;;;;;;;;;;5009615;28;20042;-68
2023/08/16 13:04:12;;;;;;;2.53;2.13;;;;;;;;;;5029038;28;20053;-68
2023/08/16 13:06:38;;;;;;;3.47;2.00;;;;;;;;;;5009000;28;20077;-68
2023/08/16 13:09:07;;;;;;;5.72;2.55;;;;;;;;;;5023919;28;20057;-68
2023/08/16 13:11:33;;;;;;;5.18;1.98;;;;;;;;;;5021264;28;20489;-68
2023/08/16 13:14:00;;;;;;;3.42;2.15;;;;;;;;;;5012144;28;20098;-68
2023/08/16 13:16:26;;;;;;;3.47;2.03;;;;;;;;;;5026139;28;20496;-68
2023/08/16 13:18:52;;;;;;;2.65;2.00;;;;;;;;;;5028267;28;20057;-68
2023/08/16 13:21:18;;;;;;;3.33;1.83;;;;;;;;;;5011500;28;20057;-68
2023/08/16 13:23:50;;;;;;;3.30;2.05;;;;;;;;;;5010514;28;20037;-68
2023/08/16 13:26:16;;;;;;;4.05;1.95;;;;;;;;;;5029029;28;20059;-68
2023/08/16 13:28:42;;;;;;;4.88;2.35;;;;;;;;;;5023794;28;20508;-68
2023/08/16 13:31:10;;;;;;;5.45;2.13;;;;;;;;;;4991551;28;20058;-68
2023/08/16 13:33:36;;;;;;;3.80;2.15;;;;;;;;;;5009470;28;20490;-68
2023/08/16 13:36:02;;;;;;;4.70;2.00;;;;;;;;;;5002380;28;20049;-68
2023/08/16 13:38:28;;;;;;;2.15;1.90;;;;;;;;;;5028846;28;20084;-68
2023/08/16 13:40:54;;;;;;;3.90;2.05;;;;;;;;;;5029147;28;20073;-68
2023/08/16 13:43:25;;;;;;;3.05;1.95;;;;;;;;;;5002268;28;20515;-68
2023/08/16 13:45:51;;;;;;;2.92;1.85;;;;;;;;;;5028592;28;20131;-68
2023/08/16 13:48:17;;;;;;;1.77;1.60;;;;;;;;;;5011459;28;20053;-68
2023/08/16 13:50:43;;;;;;;3.28;1.90;;;;;;;;;;5028727;28;20041;-68
2023/08/16 13:53:09;;;;;;;5.03;1.90;;;;;;;;;;5009426;28;20037;-68
2023/08/16 13:55:35;;;;;;;2.60;2.10;;;;;;;;;;5013669;28;20077;-69
2023/08/16 13:58:01;;;;;;;4.85;2.00;;;;;;;;;;5019924;28;20074;-70
2023/08/16 14:00:28;;;;;;;3.38;1.65;;;;;;;;;;5007599;28;20518;-69
2023/08/16 14:02:54;;;;;;;3.15;1.90;;;;;;;;;;5027843;28;20094;-70
2023/08/16 14:05:21;;;;;;;5.03;2.08;;;;;;;;;;5023478;28;20137;-69
2023/08/16 14:07:47;;;;;;;2.70;1.63;;;;;;;;;;5002703;28;20049;-69
2023/08/16 14:10:13;;;;;;;4.95;1.95;;;;;;;;;;5009559;28;20060;-69
2023/08/16 14:12:40;;;;;;;2.30;1.90;;;;;;;;;;5007095;28;20102;-69
2023/08/16 14:15:06;;;;;;;4.35;2.03;;;;;;;;;;5004186;28;20703;-69
2023/08/16 14:17:32;;;;;;;3.40;1.90;;;;;;;;;;5016219;28;20176;-70
2023/08/16 14:19:58;;;;;;;3.95;2.20;;;;;;;;;;4998199;28;20057;-68
2023/08/16 14:22:24;;;;;;;3.60;1.95;;;;;;;;;;5009665;28;20511;-68
2023/08/16 14:24:50;;;;;;;3.15;1.90;;;;;;;;;;4996606;28;20099;-69
2023/08/16 14:27:17;;;;;;;4.15;1.98;;;;;;;;;;4997614;28;20038;-69
2023/08/16 14:29:43;;;;;;;2.78;1.70;;;;;;;;;;5005791;28;20046;-69
2023/08/16 14:32:09;;;;;;;2.00;1.70;;;;;;;;;;5010079;28;20056;-68
2023/08/16 14:34:35;;;;;;;1.75;1.50;;;;;;;;;;5011616;28;20133;-68
2023/08/16 14:37:02;;;;;;;2.08;1.50;;;;;;;;;;5028194;28;20045;-68
2023/08/16 14:39:28;;;;;;;2.65;1.42;;;;;;;;;;5012807;28;20064;-68